Estación Meteorológica Peña el Pijo (Robertgarden) [ 12/11/19 23:06:05 CET ]

Fecha Hora Presion(HPa) Temp (°C) Humedad % Rocio (°C) Viento ( m/s) Direccion Lluvia 1Hora(mm) Lluvia 24H(mm) LLuvia Total(mm)
2019-Nov-29 01:01:50 1009.000 5.9 78 2.3         37.81
2019-Nov-29 02:01:45 1009.000 4.6 81 1.6         37.81
2019-Nov-29 03:01:48 1009.200 4.2 82 1.4         37.81
2019-Nov-29 04:01:48 1009.300 3.8 83 1.2         37.81
2019-Nov-29 05:01:46 1009.400 4.3 85 2.0         37.81
2019-Nov-29 06:01:51 1009.500 4.2 86 2.0         37.81
2019-Nov-29 07:01:51 1009.800 4.4 86 2.2         37.81
2019-Nov-29 08:01:46 1010.100 5.3 87 3.3         37.81
2019-Nov-29 09:01:44 1011.000 8.6 86 6.4         37.81
2019-Nov-29 10:01:47 1011.500 12.5 77 8.6         37.81
2019-Nov-29 11:02:00 1011.600 13.6 69 8.0         37.81
2019-Nov-29 12:01:48 1011.000 16.8 62 9.5         37.81
2019-Nov-29 13:02:16 1010.500 18.6 57 9.9         37.81
2019-Nov-29 14:01:43 1010.400 18.8 53 9.0         37.81
2019-Nov-29 15:01:50 1009.900 18.4 56 9.4 0.9 NNW     37.81
2019-Nov-29 16:01:40 1010.200 17.9 57 9.2 0.5 NNE     37.81
2019-Nov-29 17:02:04 1010.500 14.5 66 8.2         37.81
2019-Nov-29 18:01:47 1010.600 11.9 70 6.6         37.81
2019-Nov-29 19:01:46 1011.100 9.2 75 4.9         37.81
2019-Nov-29 20:01:42 1011.400 7.9 79 4.5         37.81
2019-Nov-29 21:02:04 1011.700 6.7 83 4.0         37.81
2019-Nov-29 22:01:56 1011.500 5.5 84 3.0         37.81
2019-Nov-29 23:01:58 1011.500 5.0 84 2.5         37.81

Temperatura Máxima:18°    Temperatura Mínima:
Presión Máxima:1011.700 Hpa    Presión Mínima:1009.000 Hpa


Volver